Time;durP1;ratioP1;P1;durP2;ratioP2;P2;SDS_P1;SDS_P2;PMS_P1;PMS_P2;Temp;Humidity;BMP_temperature;BMP_pressure;BME280_temperature;BME280_humidity;BME280_pressure;Samples;Min_cycle;Max_cycle;Signal;HPM_P1;HPM_P2
2022/08/12 00:44:15;;;;;;;9.80;4.65;;;;;;;20.79;48.29;101825.94;5111747;28;20078;-58
2022/08/12 00:46:49;;;;;;;7.05;4.50;;;;;;;20.88;48.03;101830.16;5112801;28;20047;-58
2022/08/12 00:49:15;;;;;;;9.20;4.22;;;;;;;20.83;48.10;101832.59;5106016;27;20484;-57
2022/08/12 00:54:26;;;;;;;9.85;4.40;;;;;;;20.68;47.87;101825.50;5113097;28;20069;-58
2022/08/12 00:56:56;;;;;;;6.65;4.28;;;;;;;20.71;47.72;101824.28;5113753;28;20110;-57
2022/08/12 00:59:23;;;;;;;5.15;3.97;;;;;;;20.70;48.08;101822.63;5113399;27;20059;-57
2022/08/12 01:01:50;;;;;;;8.82;4.13;;;;;;;20.65;47.56;101820.53;5109935;28;20020;-57
2022/08/12 01:12:37;;;;;;;6.57;4.10;;;;;;;20.51;47.95;101819.69;5111867;28;20050;-56
2022/08/12 01:15:03;;;;;;;5.38;4.03;;;;;;;20.53;47.43;101817.63;5109518;28;20117;-58
2022/08/12 01:17:29;;;;;;;6.18;3.88;;;;;;;20.59;47.70;101823.22;5110309;28;20028;-57
2022/08/12 01:19:56;;;;;;;10.27;4.18;;;;;;;20.50;47.72;101825.28;5108681;27;20165;-57
2022/08/12 01:22:29;;;;;;;7.05;3.83;;;;;;;20.47;47.58;101812.22;5106986;28;20443;-57
2022/08/12 01:25:01;;;;;;;6.05;3.90;;;;;;;20.44;48.23;101824.25;5110711;28;20028;-58
2022/08/12 01:27:28;;;;;;;6.53;3.80;;;;;;;20.38;48.03;101820.47;5103990;28;20061;-57
2022/08/12 01:29:56;;;;;;;9.55;4.32;;;;;;;20.27;48.98;101824.59;5107082;27;20503;-57
2022/08/12 01:32:26;;;;;;;6.05;3.80;;;;;;;20.33;48.46;101822.94;5103980;28;20380;-56
2022/08/12 01:35:00;;;;;;;9.20;3.70;;;;;;;20.46;48.15;101819.47;5107303;28;20498;-57
2022/08/12 01:37:29;;;;;;;4.22;3.80;;;;;;;20.40;48.44;101823.81;5109509;28;20051;-57
2022/08/12 01:39:57;;;;;;;7.15;3.90;;;;;;;20.35;47.86;101822.75;5102521;28;20054;-57
2022/08/12 01:42:25;;;;;;;7.20;3.70;;;;;;;20.37;48.51;101823.41;5112192;28;20024;-58
2022/08/12 01:44:54;;;;;;;8.25;3.83;;;;;;;20.42;48.47;101818.19;5109284;28;20035;-58
2022/08/12 01:47:31;;;;;;;6.10;3.40;;;;;;;20.45;48.38;101817.81;5110003;28;20067;-57
2022/08/12 01:50:07;;;;;;;9.80;3.80;;;;;;;20.41;48.09;101819.25;5113613;27;20031;-59
2022/08/12 01:52:35;;;;;;;4.28;3.55;;;;;;;20.45;48.61;101825.91;5109244;28;20085;-57
2022/08/12 01:55:01;;;;;;;8.05;3.83;;;;;;;20.39;48.55;101818.63;5111442;28;20020;-57
2022/08/12 01:57:46;;;;;;;6.80;4.15;;;;;;;20.41;48.28;101819.25;5106409;28;20400;-57
2022/08/12 02:00:14;;;;;;;6.82;3.80;;;;;;;20.33;48.54;101814.06;5109113;27;20062;-57
2022/08/12 02:02:58;;;;;;;7.20;4.13;;;;;;;20.27;48.83;101819.22;5108972;28;20040;-58
2022/08/12 02:11:33;;;;;;;8.10;4.40;;;;;;;20.27;48.99;101807.59;5108611;28;20571;-58
2022/08/12 02:14:29;;;;;;;4.78;3.90;;;;;;;20.27;48.99;101813.84;5103144;28;20039;-56
2022/08/12 02:17:11;;;;;;;9.40;4.57;;;;;;;20.09;49.56;101810.88;5106135;28;20160;-57
2022/08/12 02:20:04;;;;;;;7.10;4.80;;;;;;;20.18;49.83;101804.25;5110607;27;20031;-57
2022/08/12 02:22:30;;;;;;;8.98;4.60;;;;;;;20.02;49.54;101810.84;5106978;28;20047;-60
2022/08/12 02:25:05;;;;;;;7.80;4.68;;;;;;;19.98;49.69;101804.22;5110039;28;20465;-57
2022/08/12 02:27:38;;;;;;;8.75;4.20;;;;;;;19.98;49.87;101805.03;5107521;28;20397;-57
2022/08/12 02:30:10;;;;;;;7.28;4.68;;;;;;;19.89;49.88;101811.59;5110565;28;20092;-58
2022/08/12 02:32:42;;;;;;;9.32;4.30;;;;;;;19.96;50.12;101806.25;5106734;28;20020;-57
2022/08/12 02:35:15;;;;;;;9.90;4.65;;;;;;;19.94;50.10;101803.75;5105041;28;20107;-58
2022/08/12 02:37:42;;;;;;;6.05;4.18;;;;;;;19.90;50.30;101797.09;5111375;28;20431;-57
2022/08/12 02:40:11;;;;;;;7.43;4.43;;;;;;;19.81;50.18;101798.28;5108714;28;20030;-57
2022/08/12 02:42:38;;;;;;;6.60;4.57;;;;;;;19.80;50.69;101797.47;5106576;28;20020;-57
2022/08/12 02:45:07;;;;;;;7.57;4.35;;;;;;;19.71;50.73;101794.13;5104380;28;20447;-61
2022/08/12 02:47:38;;;;;;;7.65;4.60;;;;;;;19.66;50.68;101795.75;5105042;28;20031;-57
2022/08/12 02:50:05;;;;;;;6.65;4.70;;;;;;;19.72;50.98;101795.78;5106953;28;20066;-58
2022/08/12 02:52:33;;;;;;;7.72;4.43;;;;;;;19.74;50.72;101793.72;5104006;28;20024;-60
2022/08/12 02:55:12;;;;;;;7.68;5.00;;;;;;;19.72;50.62;101795.78;5111395;28;20507;-57
2022/08/12 02:57:39;;;;;;;8.25;4.60;;;;;;;19.71;51.04;101799.50;5109123;28;20049;-57
2022/08/12 03:00:06;;;;;;;7.65;4.97;;;;;;;19.66;51.20;101798.44;5115606;27;20024;-57
2022/08/12 03:02:34;;;;;;;8.70;5.30;;;;;;;19.65;51.04;101800.31;5109233;28;20024;-57
2022/08/12 03:05:01;;;;;;;8.25;5.07;;;;;;;19.59;51.31;101795.72;5112419;28;20042;-57
2022/08/12 03:07:30;;;;;;;8.82;5.40;;;;;;;19.42;51.71;101796.03;5110162;28;20508;-58
2022/08/12 03:10:10;;;;;;;9.55;5.32;;;;;;;19.55;51.62;101797.13;5109824;27;20028;-57
2022/08/12 03:12:42;;;;;;;6.10;5.32;;;;;;;19.46;51.76;101791.94;5111851;28;20031;-57
2022/08/12 03:15:10;;;;;;;;;;;;;;;19.67;50.21;101800.94;5112749;28;20055;-57
2022/08/12 03:18:00;;;;;;;8.82;5.32;;;;;;;19.55;51.48;101794.44;5109911;28;19922;-57
2022/08/12 03:20:26;;;;;;;8.10;5.40;;;;;;;19.45;51.96;101792.13;5103685;28;20036;-57
2022/08/12 03:22:51;;;;;;;9.40;5.22;;;;;;;19.42;52.41;101789.81;5115052;28;20023;-58
2022/08/12 03:25:23;;;;;;;11.30;5.80;;;;;;;19.34;52.67;101788.13;5112305;28;20058;-59
2022/08/12 03:27:54;;;;;;;12.30;5.65;;;;;;;19.31;52.67;101786.66;5103182;28;20704;-58
2022/08/12 03:30:21;;;;;;;8.75;5.50;;;;;;;19.29;52.67;101779.81;5110304;27;20028;-57
2022/08/12 03:32:49;;;;;;;11.68;5.57;;;;;;;19.29;52.70;101782.50;5108453;28;20376;-58
2022/08/12 03:35:25;;;;;;;8.50;5.80;;;;;;;19.25;52.86;101783.91;5110317;28;20035;-58
2022/08/12 03:37:55;;;;;;;8.30;5.50;;;;;;;19.19;53.29;101775.59;5113366;28;20030;-58
2022/08/12 04:02:39;;;;;;;8.75;6.20;;;;;;;18.86;54.67;101792.28;5111923;28;20101;-60
2022/08/12 04:05:11;;;;;;;10.55;6.32;;;;;;;18.84;54.75;101791.63;5114521;28;20030;-59
2022/08/12 04:07:36;;;;;;;11.02;6.68;;;;;;;18.78;54.77;101787.88;5113184;28;20050;-59
2022/08/12 04:10:02;;;;;;;12.63;6.68;;;;;;;18.74;55.25;101788.47;5107965;28;20031;-59
2022/08/12 04:15:12;;;;;;;10.75;6.68;;;;;;;18.56;56.02;101792.44;5114760;28;20093;-58
2022/08/12 04:17:39;;;;;;;11.30;6.78;;;;;;;18.61;56.01;101783.78;5103050;28;20033;-59
2022/08/12 04:20:10;;;;;;;10.18;7.18;;;;;;;18.67;56.17;101800.00;5103537;28;20385;-59
2022/08/12 04:22:37;;;;;;;10.77;7.05;;;;;;;18.68;56.16;101798.97;5109438;28;20032;-59
2022/08/12 04:25:02;;;;;;;11.00;7.15;;;;;;;18.64;56.15;101797.66;5107570;28;20049;-58
2022/08/12 04:27:30;;;;;;;9.43;7.28;;;;;;;18.61;56.27;101794.53;5102846;28;20464;-59
2022/08/12 04:29:57;;;;;;;12.25;7.93;;;;;;;18.57;56.44;101793.25;5111787;27;20031;-59
2022/08/12 04:32:23;;;;;;;11.55;6.90;;;;;;;18.60;56.73;101798.25;5108377;28;20028;-59
2022/08/12 04:34:49;;;;;;;12.13;7.50;;;;;;;18.48;56.77;101795.22;5108242;28;20469;-59
2022/08/12 04:37:15;;;;;;;9.75;7.32;;;;;;;18.44;57.00;101799.34;5106100;28;20035;-59
2022/08/12 04:39:43;;;;;;;12.90;7.32;;;;;;;18.51;57.05;101794.84;5115870;27;20030;-59
2022/08/12 04:42:08;;;;;;;13.75;8.00;;;;;;;18.52;57.27;101801.88;5109983;28;20062;-60
2022/08/12 04:44:34;;;;;;;17.17;7.90;;;;;;;18.46;57.34;101797.28;5108711;28;20075;-57
2022/08/12 04:46:59;;;;;;;13.00;7.55;;;;;;;18.51;57.15;101800.22;5104726;28;20031;-58
2022/08/12 04:49:25;;;;;;;12.98;8.13;;;;;;;18.50;57.28;101798.56;5113027;27;20027;-57
2022/08/12 04:51:51;;;;;;;13.10;8.10;;;;;;;18.45;57.40;101792.94;5110660;28;20035;-58
2022/08/12 04:54:17;;;;;;;9.98;7.82;;;;;;;18.42;57.55;101794.97;5109271;28;20012;-60
2022/08/12 04:56:43;;;;;;;12.38;8.23;;;;;;;18.48;57.52;101801.44;5111004;28;20153;-59
2022/08/12 04:59:10;;;;;;;12.93;8.00;;;;;;;18.47;57.79;101789.03;5108845;28;20023;-58
2022/08/12 05:01:36;;;;;;;20.45;8.45;;;;;;;18.39;58.27;101791.84;5103987;28;20034;-60
2022/08/12 05:04:01;;;;;;;13.63;8.27;;;;;;;18.51;57.87;101800.22;5109140;28;20024;-61
2022/08/12 05:06:27;;;;;;;12.65;8.23;;;;;;;18.49;58.22;101792.34;5104130;28;20097;-61
2022/08/12 05:08:56;;;;;;;10.65;8.35;;;;;;;18.51;58.15;101789.50;5103433;28;20020;-61
2022/08/12 05:11:23;;;;;;;12.45;8.02;;;;;;;18.48;58.23;101785.31;5109093;27;20498;-62
2022/08/12 05:13:50;;;;;;;14.93;8.15;;;;;;;18.55;57.98;101791.59;5108460;28;20031;-60
2022/08/12 05:16:15;;;;;;;14.70;8.60;;;;;;;18.55;58.07;101796.13;5105606;28;20019;-59
2022/08/12 05:18:40;;;;;;;15.27;8.40;;;;;;;18.54;58.58;101791.78;5101096;28;20032;-60
2022/08/12 05:21:07;;;;;;;13.82;8.73;;;;;;;18.58;58.26;101795.75;5107431;28;20503;-59
2022/08/12 05:23:36;;;;;;;9.65;8.65;;;;;;;18.55;58.26;101788.91;5112205;28;20036;-59
2022/08/12 05:26:01;;;;;;;13.27;9.10;;;;;;;18.64;58.38;101796.81;5113175;28;20028;-58
2022/08/12 05:28:29;;;;;;;12.45;9.32;;;;;;;18.61;58.37;101800.75;5107693;28;20020;-58
2022/08/12 05:30:56;;;;;;;14.32;9.27;;;;;;;18.67;58.40;101801.81;5110020;27;20373;-57
2022/08/12 05:33:25;;;;;;;12.07;9.20;;;;;;;18.67;58.32;101810.72;5103938;28;20077;-58
2022/08/12 05:35:51;;;;;;;15.80;9.10;;;;;;;18.71;58.60;101804.97;5105257;28;20468;-58
2022/08/12 05:41:04;;;;;;;13.65;9.55;;;;;;;18.69;58.96;101802.47;5112539;27;20122;-57
2022/08/12 05:43:32;;;;;;;12.73;9.07;;;;;;;18.77;58.77;101817.63;5103819;28;20026;-57
2022/08/12 05:45:57;;;;;;;13.00;9.07;;;;;;;18.79;58.75;101813.72;5108284;28;20056;-59
2022/08/12 05:48:23;;;;;;;10.95;9.07;;;;;;;18.79;58.69;101812.88;5108228;28;20034;-57
2022/08/12 05:50:48;;;;;;;15.00;9.27;;;;;;;18.81;59.23;101816.22;5107303;27;20124;-57
2022/08/12 05:53:14;;;;;;;13.40;9.13;;;;;;;18.87;58.89;101826.19;5107154;28;20051;-58
2022/08/12 05:55:39;;;;;;;13.52;9.40;;;;;;;18.92;59.14;101828.28;5107748;28;20024;-57
2022/08/12 05:58:06;;;;;;;10.48;9.30;;;;;;;18.98;58.95;101818.66;5110464;28;20106;-58
2022/08/12 06:00:33;;;;;;;12.40;9.10;;;;;;;19.03;58.90;101829.66;5101254;28;20486;-57
2022/08/12 06:03:01;;;;;;;14.27;9.68;;;;;;;19.17;58.14;101822.53;5099550;28;20036;-57
2022/08/12 06:05:28;;;;;;;11.02;9.02;;;;;;;19.17;58.34;101823.38;5105574;28;20038;-57
2022/08/12 06:07:55;;;;;;;11.55;8.82;;;;;;;19.25;58.46;101827.78;5109698;28;20040;-58
2022/08/12 06:10:21;;;;;;;15.02;9.40;;;;;;;19.25;58.27;101824.25;5114479;27;20502;-57
2022/08/12 06:12:48;;;;;;;14.52;8.70;;;;;;;19.31;57.94;101826.16;5107549;28;20032;-58
2022/08/12 06:15:15;;;;;;;15.40;9.27;;;;;;;19.32;57.81;101827.81;5109965;28;20020;-57
2022/08/12 06:17:41;;;;;;;14.50;9.23;;;;;;;19.38;57.59;101826.22;5105085;28;20099;-57
2022/08/12 06:20:12;;;;;;;15.88;9.32;;;;;;;19.43;57.67;101819.19;5099700;28;20464;-58
2022/08/12 06:22:41;;;;;;;12.27;9.43;;;;;;;19.48;58.05;101822.13;5111250;28;20111;-58
2022/08/12 06:25:08;;;;;;;18.70;8.98;;;;;;;19.55;58.23;101824.03;5111389;28;20080;-57
2022/08/12 06:27:47;;;;;;;15.30;9.40;;;;;;;19.63;57.63;101830.09;5110535;28;20031;-58
2022/08/12 06:30:15;;;;;;;15.02;9.38;;;;;;;19.68;57.57;101821.41;5111598;28;20414;-60
2022/08/12 06:32:42;;;;;;;12.07;9.52;;;;;;;19.70;57.52;101818.53;5107842;28;20461;-59
2022/08/12 06:35:09;;;;;;;14.85;10.20;;;;;;;19.73;57.50;101818.97;5109112;28;20034;-58
2022/08/12 06:37:46;;;;;;;16.27;9.57;;;;;;;19.82;57.47;101818.78;5105497;28;20031;-60
2022/08/12 06:40:12;;;;;;;13.52;9.45;;;;;;;19.89;57.26;101822.38;5111452;28;20039;-61
2022/08/12 06:42:47;;;;;;;11.52;8.77;;;;;;;19.95;57.26;101820.72;5108351;28;20668;-59
2022/08/12 06:45:15;;;;;;;14.15;9.60;;;;;;;20.01;57.33;101820.78;5104553;28;20055;-60
2022/08/12 06:47:41;;;;;;;14.35;9.30;;;;;;;20.09;57.41;101817.06;5097885;28;20030;-58
2022/08/12 06:50:07;;;;;;;16.80;9.55;;;;;;;20.14;56.67;101816.50;5101908;28;20368;-60
2022/08/12 06:52:32;;;;;;;13.95;8.57;;;;;;;20.19;57.19;101814.03;5110272;28;20785;-60
2022/08/12 06:54:58;;;;;;;17.75;9.48;;;;;;;20.25;56.77;101815.91;5108458;28;20111;-60
2022/08/12 06:57:28;;;;;;;13.82;8.95;;;;;;;20.29;56.69;101811.75;5109231;28;20019;-59
2022/08/12 06:59:54;;;;;;;13.73;9.02;;;;;;;20.40;57.24;101812.19;5105228;28;20035;-59
2022/08/12 07:02:21;;;;;;;15.90;9.48;;;;;;;20.45;56.80;101815.13;5104568;28;20043;-59
2022/08/12 07:04:46;;;;;;;14.73;8.98;;;;;;;20.52;56.43;101810.56;5110083;28;20388;-60
2022/08/12 07:07:12;;;;;;;15.02;9.25;;;;;;;20.60;56.13;101808.72;5105979;28;20032;-60
2022/08/12 07:09:41;;;;;;;13.98;8.95;;;;;;;20.72;56.16;101815.16;5109391;28;20039;-60
2022/08/12 07:12:18;;;;;;;17.17;9.07;;;;;;;20.82;55.73;101818.28;5104168;28;20080;-60
2022/08/12 07:14:43;;;;;;;14.40;8.75;;;;;;;20.92;55.00;101811.69;5107515;28;20031;-59
2022/08/12 07:17:09;;;;;;;13.82;8.57;;;;;;;21.00;55.04;101816.84;5102364;28;20038;-60
2022/08/12 07:19:35;;;;;;;16.40;8.85;;;;;;;21.08;54.67;101813.94;5115512;28;20034;-57
2022/08/12 07:22:05;;;;;;;15.77;9.02;;;;;;;21.18;54.50;101812.69;5111450;28;20030;-56
2022/08/12 07:24:31;;;;;;;14.95;9.20;;;;;;;21.28;54.42;101815.81;5108631;28;20022;-58
2022/08/12 07:26:57;;;;;;;14.85;8.65;;;;;;;21.39;54.00;101819.72;5110442;28;20031;-57
2022/08/12 07:29:24;;;;;;;16.95;8.70;;;;;;;21.49;53.86;101819.28;5110053;28;20502;-56
2022/08/12 07:31:50;;;;;;;19.70;9.07;;;;;;;21.59;53.08;101824.25;5109333;28;20476;-61
2022/08/12 07:34:15;;;;;;;15.27;8.13;;;;;;;21.71;54.10;101835.25;5110590;28;20050;-59
2022/08/12 07:36:41;;;;;;;15.98;8.10;;;;;;;21.84;53.70;101829.81;5096523;28;22218;-60
2022/08/12 07:39:06;;;;;;;17.75;8.32;;;;;;;21.94;52.09;101825.84;5101803;28;20480;-60
2022/08/12 07:41:32;;;;;;;13.65;7.85;;;;;;;22.06;53.21;101828.69;5105411;28;20020;-60
2022/08/12 07:44:01;;;;;;;15.38;7.30;;;;;;;22.20;51.87;101824.88;5104316;28;20035;-59
2022/08/12 07:46:30;;;;;;;14.25;7.28;;;;;;;22.34;51.24;101828.34;5106223;28;20043;-59
2022/08/12 07:49:00;;;;;;;10.63;7.30;;;;;;;22.44;50.60;101830.56;5110297;28;20036;-60
2022/08/12 07:51:26;;;;;;;10.15;6.63;;;;;;;22.58;50.99;101820.53;5101980;28;20015;-60
2022/08/12 07:53:54;;;;;;;12.80;6.47;;;;;;;22.64;50.99;101825.06;5104644;28;20044;-55
2022/08/12 07:56:20;;;;;;;11.68;6.50;;;;;;;22.76;50.69;101827.06;5113148;28;20020;-51
2022/08/12 07:58:45;;;;;;;14.45;6.25;;;;;;;22.91;49.99;101827.56;5114037;28;20027;-53
2022/08/12 08:01:14;;;;;;;12.40;6.60;;;;;;;22.98;50.13;101830.19;5109594;27;20371;-59
2022/08/12 08:06:31;;;;;;;13.93;5.97;;;;;;;23.21;48.35;101835.00;5111812;28;20046;-57
2022/08/12 08:08:58;;;;;;;11.15;5.43;;;;;;;23.33;47.65;101835.13;5108915;28;20027;-57
2022/08/12 08:14:09;;;;;;;12.35;4.70;;;;;;;23.65;44.58;101828.75;5108868;28;20479;-59
2022/08/12 08:16:36;;;;;;;11.32;5.20;;;;;;;23.74;44.26;101832.00;5106696;28;20034;-57
2022/08/12 08:19:02;;;;;;;8.35;5.07;;;;;;;23.86;43.53;101834.75;5109894;28;20024;-57
2022/08/12 08:21:28;;;;;;;9.20;4.82;;;;;;;23.93;44.05;101835.53;5121105;27;20472;-59
2022/08/12 08:26:37;;;;;;;7.50;4.68;;;;;;;24.09;41.69;101833.25;5102041;27;20073;-58
2022/08/12 08:29:02;;;;;;;13.95;5.25;;;;;;;24.20;42.18;101840.63;5109589;28;20039;-57
2022/08/12 08:31:27;;;;;;;10.60;5.10;;;;;;;24.26;43.14;101837.00;5109276;28;20472;-57
2022/08/12 08:33:53;;;;;;;8.80;5.03;;;;;;;24.41;42.44;101835.72;5107546;28;20055;-57
2022/08/12 08:36:20;;;;;;;10.10;5.15;;;;;;;24.42;42.53;101832.78;5106939;28;20036;-57
2022/08/12 08:38:45;;;;;;;11.50;4.90;;;;;;;24.54;43.50;101840.97;5103599;28;20026;-57
2022/08/12 08:43:58;;;;;;;11.20;5.00;;;;;;;24.76;41.39;101837.72;5100582;28;21934;-57
2022/08/12 08:46:24;;;;;;;10.55;5.05;;;;;;;24.85;39.88;101835.53;5106223;28;20050;-58
2022/08/12 08:48:49;;;;;;;11.23;4.88;;;;;;;24.91;41.28;101839.19;5107467;28;20032;-57
2022/08/12 08:51:15;;;;;;;11.32;5.07;;;;;;;24.97;40.98;101840.97;5111935;27;20031;-58
2022/08/12 08:53:42;;;;;;;10.75;4.93;;;;;;;25.07;42.63;101840.38;5106771;28;20446;-61
2022/08/12 08:56:10;;;;;;;9.27;4.70;;;;;;;25.16;40.35;101841.66;5090556;27;21744;-61
2022/08/12 08:58:37;;;;;;;12.45;4.70;;;;;;;25.22;39.67;101837.19;5110793;28;20493;-60
2022/08/12 09:01:03;;;;;;;15.73;4.80;;;;;;;25.33;39.61;101835.53;5101709;27;20052;-60
2022/08/12 09:03:29;;;;;;;7.57;4.25;;;;;;;25.46;37.85;101834.47;5109027;28;20023;-60
2022/08/12 09:05:55;;;;;;;9.90;4.40;;;;;;;25.48;39.20;101843.19;5107410;28;20544;-60
2022/08/12 09:08:21;;;;;;;10.65;4.93;;;;;;;25.51;39.94;101831.88;5086980;28;20019;-58
2022/08/12 09:10:47;;;;;;;9.88;4.90;;;;;;;25.55;41.26;101838.50;5099967;28;20032;-57
2022/08/12 09:13:28;;;;;;;11.55;5.10;;;;;;;25.61;40.17;101834.81;5112350;28;20038;-58
2022/08/12 09:15:53;;;;;;;9.10;4.78;;;;;;;25.78;39.32;101831.38;5104415;28;20039;-58
2022/08/12 09:18:19;;;;;;;10.55;4.50;;;;;;;25.80;39.29;101834.66;5101511;28;20032;-58
2022/08/12 09:20:47;;;;;;;13.45;4.28;;;;;;;25.98;38.83;101830.13;5103026;27;20030;-59
2022/08/12 09:23:12;;;;;;;8.23;4.38;;;;;;;26.09;39.42;101829.25;5105222;28;20027;-58
2022/08/12 09:25:40;;;;;;;14.57;4.70;;;;;;;26.10;37.82;101825.44;5098729;28;20032;-58
2022/08/12 09:28:08;;;;;;;10.45;4.70;;;;;;;26.31;36.18;101820.44;5103156;27;20019;-58
2022/08/12 09:30:34;;;;;;;9.57;4.43;;;;;;;26.39;36.38;101822.75;5115238;27;20024;-57
2022/08/12 09:32:59;;;;;;;9.07;4.13;;;;;;;26.50;36.00;101831.09;5112745;28;20034;-57
2022/08/12 09:35:30;;;;;;;10.70;4.50;;;;;;;26.62;36.60;101818.25;5103002;28;20031;-58
2022/08/12 09:37:56;;;;;;;8.50;4.43;;;;;;;26.76;35.57;101817.91;5112148;28;20497;-59
2022/08/12 09:40:23;;;;;;;9.80;4.45;;;;;;;26.86;38.32;101818.09;5099574;28;20020;-57
2022/08/12 09:45:34;;;;;;;8.45;4.28;;;;;;;27.07;34.93;101815.69;5107981;28;20104;-57
2022/08/12 09:48:08;;;;;;;7.75;4.40;;;;;;;27.12;34.46;101810.31;5109239;28;20035;-57
2022/08/12 09:50:34;;;;;;;9.77;4.10;;;;;;;27.21;33.78;101806.13;5117965;27;20059;-58
2022/08/12 09:53:09;;;;;;;12.98;4.25;;;;;;;27.26;33.48;101806.19;5106015;28;20134;-57
2022/08/12 09:55:35;;;;;;;8.50;4.00;;;;;;;27.34;33.37;101806.81;5102753;28;20054;-60
2022/08/12 09:58:01;;;;;;;6.88;3.90;;;;;;;27.40;33.05;101798.44;5097278;28;20047;-62
2022/08/12 10:00:26;;;;;;;7.22;3.90;;;;;;;27.51;32.85;101802.16;5098983;28;20468;-60
2022/08/12 10:03:05;;;;;;;8.85;3.90;;;;;;;27.64;33.02;101805.59;5110420;28;20024;-59
2022/08/12 10:05:37;;;;;;;6.75;3.83;;;;;;;27.80;31.16;101790.25;5111908;27;20038;-60
2022/08/12 10:08:03;;;;;;;;;;;;;;;27.82;32.00;101803.63;5102285;28;20062;-61
2022/08/12 10:10:29;;;;;;;6.00;3.63;;;;;;;27.88;31.20;101794.44;5098306;27;20652;-61
2022/08/12 10:15:44;;;;;;;6.70;3.72;;;;;;;28.24;30.84;101786.63;5107909;28;20063;-60
2022/08/12 10:18:13;;;;;;;7.43;3.53;;;;;;;28.31;30.23;101787.25;5109355;28;20023;-60
2022/08/12 10:20:39;;;;;;;6.32;3.60;;;;;;;28.33;31.05;101785.06;5101772;27;20055;-60
2022/08/12 10:23:05;;;;;;;6.57;3.40;;;;;;;28.43;30.44;101783.53;5106049;28;20084;-60
2022/08/12 10:30:59;;;;;;;5.55;3.50;;;;;;;28.49;30.18;101771.56;5113329;27;20055;-59
2022/08/12 10:33:24;;;;;;;5.57;3.85;;;;;;;28.54;28.67;101774.34;5106256;28;20031;-59
2022/08/12 10:35:52;;;;;;;7.90;3.60;;;;;;;28.53;28.81;101766.41;5108572;28;20060;-59
2022/08/12 10:38:17;;;;;;;7.07;3.80;;;;;;;28.60;27.96;101767.84;5109476;28;20035;-60
2022/08/12 10:43:42;;;;;;;6.82;3.60;;;;;;;28.77;28.72;101768.75;5105686;28;20503;-61
2022/08/12 10:46:09;;;;;;;4.25;3.40;;;;;;;28.73;28.05;101758.34;5110351;28;20501;-60
2022/08/12 10:48:34;;;;;;;6.72;3.70;;;;;;;28.75;28.05;101758.09;5107112;28;20063;-60
2022/08/12 10:51:03;;;;;;;5.07;3.50;;;;;;;28.83;28.84;101754.91;5106159;28;20047;-61
2022/08/12 10:53:29;;;;;;;3.75;3.35;;;;;;;28.88;27.57;101758.75;5108833;28;20028;-60
2022/08/12 10:55:54;;;;;;;8.38;3.67;;;;;;;28.89;27.34;101755.78;5101328;28;20119;-61
2022/08/12 10:58:20;;;;;;;4.57;3.35;;;;;;;28.97;28.14;101741.59;5106945;28;20474;-59
2022/08/12 11:00:45;;;;;;;5.93;3.60;;;;;;;29.03;27.95;101753.41;5099574;28;20035;-60
2022/08/12 11:03:11;;;;;;;3.70;3.40;;;;;;;29.11;27.24;101747.41;5105871;28;20035;-60
2022/08/12 11:05:36;;;;;;;6.95;3.65;;;;;;;29.08;27.20;101744.41;5109969;28;20028;-60
2022/08/12 11:08:01;;;;;;;9.07;3.90;;;;;;;29.20;28.15;101741.47;5106651;28;20024;-60
2022/08/12 11:10:27;;;;;;;8.25;3.90;;;;;;;29.23;27.09;101736.28;5108904;28;20028;-61
2022/08/12 11:12:55;;;;;;;4.03;3.40;;;;;;;29.34;27.17;101731.69;5107738;28;20457;-60
2022/08/12 11:15:22;;;;;;;8.15;3.80;;;;;;;29.29;26.97;101736.31;5108792;28;20023;-60
2022/08/12 11:17:48;;;;;;;5.18;3.60;;;;;;;29.39;28.19;101733.59;5104294;28;20023;-60
2022/08/12 11:20:14;;;;;;;6.28;3.70;;;;;;;29.39;27.74;101730.88;5116553;28;20023;-60
2022/08/12 11:22:39;;;;;;;7.35;3.65;;;;;;;29.39;27.12;101726.25;5112344;28;20028;-61
2022/08/12 11:25:08;;;;;;;8.02;3.60;;;;;;;29.43;27.59;101714.75;5110505;28;20023;-60
2022/08/12 11:27:34;;;;;;;7.00;3.60;;;;;;;29.54;27.32;101713.72;5106362;28;20477;-61
2022/08/12 11:29:59;;;;;;;4.25;3.65;;;;;;;29.51;27.10;101708.81;5105405;28;20103;-60
2022/08/12 11:32:24;;;;;;;11.48;4.13;;;;;;;29.45;26.79;101707.13;5112579;28;20012;-62
2022/08/12 11:34:49;;;;;;;5.90;3.70;;;;;;;29.54;27.75;101708.28;5107585;28;20024;-60
2022/08/12 11:37:15;;;;;;;6.38;3.58;;;;;;;29.63;27.38;101714.84;5112914;28;20401;-59
2022/08/12 11:39:40;;;;;;;6.80;3.70;;;;;;;29.63;27.07;101712.13;5114342;27;20460;-59
2022/08/12 11:42:05;;;;;;;5.50;3.80;;;;;;;29.67;26.99;101710.50;5104871;28;20028;-59
2022/08/12 11:44:30;;;;;;;5.85;3.70;;;;;;;29.72;26.51;101708.84;5103446;28;20043;-59
2022/08/12 11:46:57;;;;;;;8.30;3.75;;;;;;;29.70;27.38;101694.66;5111235;28;20034;-59
2022/08/12 11:49:25;;;;;;;6.45;3.53;;;;;;;29.81;27.38;101693.56;5105407;28;20058;-59
2022/08/12 11:51:50;;;;;;;6.32;3.40;;;;;;;29.87;26.39;101694.38;5099671;28;20367;-59
2022/08/12 11:54:16;;;;;;;6.57;3.60;;;;;;;29.92;27.76;101697.97;5104735;28;20020;-59
2022/08/12 11:56:41;;;;;;;5.68;3.83;;;;;;;30.04;26.72;101694.13;5104605;28;20032;-60
2022/08/12 11:59:06;;;;;;;6.90;3.47;;;;;;;30.14;26.08;101677.72;5112784;27;20028;-59
2022/08/12 12:01:32;;;;;;;7.07;3.53;;;;;;;30.19;26.27;101685.94;5112752;27;20561;-59
2022/08/12 12:03:57;;;;;;;5.28;3.50;;;;;;;30.16;26.21;101680.19;5107818;28;20422;-59
2022/08/12 12:06:23;;;;;;;4.63;3.50;;;;;;;30.27;26.03;101675.53;5108419;28;20080;-60
2022/08/12 12:08:48;;;;;;;5.75;3.63;;;;;;;30.36;26.70;101679.38;5106917;28;20396;-58
2022/08/12 12:11:13;;;;;;;7.32;3.70;;;;;;;30.35;26.08;101672.25;5107737;28;20028;-58
2022/08/12 12:13:39;;;;;;;9.82;3.90;;;;;;;30.36;25.67;101673.88;5101649;28;20059;-60
2022/08/12 12:16:05;;;;;;;4.65;3.47;;;;;;;30.43;26.32;101668.94;5104669;28;20036;-57
2022/08/12 12:18:32;;;;;;;7.63;4.40;;;;;;;30.55;25.35;101665.09;5113672;28;20051;-58
2022/08/12 12:20:59;;;;;;;8.77;3.67;;;;;;;30.60;25.50;101659.59;5113644;27;20511;-58
2022/08/12 12:23:25;;;;;;;4.93;3.45;;;;;;;30.65;25.90;101654.13;5104389;28;20031;-57
2022/08/12 12:25:50;;;;;;;6.78;3.53;;;;;;;30.84;26.43;101657.06;5111949;28;20475;-57
2022/08/12 12:28:16;;;;;;;8.75;3.60;;;;;;;30.88;25.47;101662.81;5113484;28;20028;-58
2022/08/12 12:30:42;;;;;;;5.65;3.55;;;;;;;30.90;24.88;101663.38;5111915;27;20019;-58
2022/08/12 12:33:09;;;;;;;9.65;3.40;;;;;;;30.99;24.95;101660.88;5113128;28;20019;-59
2022/08/12 12:35:35;;;;;;;6.68;3.42;;;;;;;31.00;24.71;101655.13;5102980;28;20034;-57
2022/08/12 12:38:03;;;;;;;6.22;3.63;;;;;;;31.04;24.94;101660.84;5101889;28;20024;-56
2022/08/12 12:40:30;;;;;;;6.65;3.60;;;;;;;31.05;24.25;101658.91;5117807;27;20123;-57
2022/08/12 12:42:56;;;;;;;6.63;3.58;;;;;;;31.05;25.49;101647.94;5094021;28;20408;-57
2022/08/12 12:45:22;;;;;;;7.53;3.47;;;;;;;31.13;24.82;101644.63;5105343;28;20054;-58
2022/08/12 12:48:11;;;;;;;8.02;3.85;;;;;;;31.12;24.91;101641.06;5111163;28;20023;-57
2022/08/12 12:50:39;;;;;;;4.40;3.50;;;;;;;31.29;24.82;101641.81;5125311;27;20364;-58
2022/08/12 12:53:07;;;;;;;6.90;3.60;;;;;;;31.30;24.75;101637.97;5109365;27;20036;-57
2022/08/12 12:55:34;;;;;;;6.45;3.72;;;;;;;31.24;24.49;101626.22;5100467;28;20073;-56
2022/08/12 12:58:03;;;;;;;6.25;3.60;;;;;;;31.14;24.24;101627.09;5104930;28;20038;-58
2022/08/12 13:00:30;;;;;;;7.57;3.60;;;;;;;31.11;25.22;101633.13;5106673;27;20034;-58
2022/08/12 13:02:55;;;;;;;4.45;3.70;;;;;;;31.10;25.53;101631.50;5113447;28;20047;-57
2022/08/12 13:05:23;;;;;;;10.63;4.07;;;;;;;31.06;24.61;101619.47;5111323;28;20047;-57
2022/08/12 13:07:49;;;;;;;7.10;3.85;;;;;;;31.13;25.13;101622.72;5102527;28;20469;-57
2022/08/12 13:10:14;;;;;;;9.10;4.15;;;;;;;30.99;25.02;101619.78;5102705;28;20040;-61
2022/08/12 13:12:41;;;;;;;9.23;4.18;;;;;;;30.97;25.28;101611.84;5103601;28;20032;-57
2022/08/12 13:15:09;;;;;;;8.50;4.18;;;;;;;31.00;25.54;101619.50;5106173;28;20027;-57
2022/08/12 13:17:34;;;;;;;10.32;4.50;;;;;;;30.97;24.72;101619.22;5099824;28;20483;-57